AirNav   Jet Aviation Boston
 
 508 users online  

KATA Hall-Miller Municipal Airport
Atlanta, Texas, USA

GOING TO ATLANTA?


FAA INFORMATION EFFECTIVE 29 MARCH 2018

Location

FAA Identifier: ATA
Lat/Long: 33-06-09.1000N / 094-11-42.1000W
33-06.151667N / 094-11.701667W
33.1025278 / -94.1950278
(estimated)
Elevation: 280.3 ft. / 85.4 m (surveyed)
Variation: 04E (2000)
From city: 2 miles SW of ATLANTA, TX
Time zone: UTC -5 (UTC -6 during Standard Time)
Zip code: 75551

Airport Operations

Airport use: Open to the public
Activation date: 11/1946
Control tower: no
ARTCC: FORT WORTH CENTER
FSS: FORT WORTH FLIGHT SERVICE STATION
NOTAMs facility: FTW (NOTAM-D service available)
Attendance: IREG
Wind indicator: lighted
Segmented circle: yes
Lights: SS-SR
Beacon: white-green (lighted land airport)
Operates sunset to sunrise.

Airport Communications

CTAF: 122.9
  • APCH/DEP SERVICE PROVIDED BY FORT WORTH ARTCC ON FREQS 123.925/269.475 (TEXARKANA RCAG).

Nearby radio navigation aids

VOR radial/distance  VOR name  Freq  Var
TXKr187/25.4TEXARKANA VORTAC116.3007E
EICr309/27.8BELCHER VORTAC117.4007E

 
NDB name  Hdg/Dist  Freq  Var  ID
ATLANTAat field34704EATA .- - .-

Airport Services

Fuel available: 100LL
FUEL AVBL 24 HRS SELF-SERVE.
Parking: tiedowns
Bottled oxygen: NONE
Bulk oxygen: NONE

Runway Information

Runway 5/23

Dimensions: 3800 x 60 ft. / 1158 x 18 m
Surface: asphalt, in good condition
Weight bearing capacity: 
Single wheel: 12.5
Runway edge lights: medium intensity
RUNWAY 5  RUNWAY 23
Latitude: 33-05.974165N33-06.358928N
Longitude: 094-11.980172W094-11.392522W
Elevation: 280.3 ft.268.2 ft.
Gradient: 0.1%0.3% UP
Traffic pattern: leftleft
Runway heading: 048 magnetic, 052 true228 magnetic, 232 true
Markings: nonprecision, in fair conditionnonprecision, in fair condition
Visual slope indicator: 2-light PAPI on left (4.00 degrees glide path)2-light PAPI on left (4.00 degrees glide path)
Runway end identifier lights: yesyes
Touchdown point: yes, no lightsyes, no lights
Obstructions: 26 ft. trees, 413 ft. from runway, 158 ft. right of centerline, 8:1 slope to clear42 ft. trees, 200 ft. from runway, 186 ft. left of centerline
+40 FT TREES 0-300 FT FM THLD 150 FT L.

Runway 15/33

Dimensions: 2264 x 75 ft. / 690 x 23 m
Surface: turf, in good condition
Runway edge markings: RY MKD WITH 1 FT YELLOW PLASTIC PIPES.
Gradient: NW.
RUNWAY 15  RUNWAY 33
Latitude: 33-06.299907N33-05.949653N
Longitude: 094-11.805742W094-11.652232W
Elevation: 273.2 ft.261.4 ft.
Gradient: 0.5%0.5% UP
Traffic pattern: leftleft
Runway heading: 156 magnetic, 160 true336 magnetic, 340 true
Touchdown point: yes, no lightsyes, no lights
Obstructions: 60 ft. trees, 180 ft. from runway, 35 ft. left of centerline, 3:1 slope to clear55 ft. trees, 110 ft. left of centerline

Airport Ownership and Management from official FAA records

Ownership: Publicly-owned
Owner: CITY OF ATLANTA
PO BOX 669
ATLANTA, TX 75551
Phone 903-796-7153
Manager: DAVID COCKRELL
PO BOX 669
ATLANTA, TX 75551
Phone 903-796-2192
CITY MANAGER, CITY OF ATLANTA, TEXAS

Airport Operational Statistics

Aircraft based on the field: 39
Single engine airplanes: 37
Multi engine airplanes: 1
Ultralights: 1
    
Aircraft operations: avg 55/day *
75% local general aviation
25% transient general aviation
* for 12-month period ending 09 June 2016

Additional Remarks

DEER ON ARPT.
24 FT MARKED POWERLINE 500 FT FROM END OF RY 23.
RY 05 TERRAIN SLOPES +20 FT 670 FT FM THLD.

Instrument Procedures

NOTE: All procedures below are presented as PDF files. If you need a reader for these files, you should download the free Adobe Reader.

NOT FOR NAVIGATION. Please procure official charts for flight.
FAA instrument procedures published for use from 29 March 2018 at 0901Z to 26 April 2018 at 0900Z.

 
IAPs - Instrument Approach Procedures
RNAV (GPS) RWY 05   download (207KB)
NDB RWY 05   download (173KB)
NOTE: Special Take-Off Minimums/Departure Procedures apply   download (113KB)

Other nearby airports with instrument procedures:

3F4 - Vivian Airport (17 nm SE)
KTXK - Texarkana Regional Airport-Webb Field (23 nm NE)
KASL - Harrison County Airport (35 nm S)
KOSA - Mount Pleasant Regional Airport (39 nm W)
KSPH - Springhill Airport (40 nm E)
 
Loc | Ops | Rwys | IFR | FBO | Links
Com | Nav | Svcs | Stats | Notes

AirNav Hotels Sweepstakes
 
Area around KATA (Hall-Miller Municipal Airport)
 
Road maps at: MapQuest Bing Google
 
Aerial photo
WARNING: Photo may not be current or correct
Aerial photo of KATA (Hall-Miller Municipal Airport)
Photo taken 03-Sep-2006

Do you have a better or more recent aerial photo of Hall-Miller Municipal Airport that you would like to share? If so, please send us your photo.

 
Sectional chart

 
Airport distance calculator
Flying to Hall-Miller Municipal Airport? Find the distance to fly.

From to KATA

Sunrise and sunset
Times for 24-Apr-2018
 Local
(UTC-5)
 Zulu
(UTC)
Morning civil twilight06:1111:11
Sunrise06:3711:37
Sunset19:5300:53
Evening civil twilight20:1801:18

Current date and time
Zulu (UTC)  24-Apr-2018 10:28:35
Local (UTC-5)  24-Apr-2018 05:28:35
 
METAR
KTXK 
23nm NE 
240953Z AUTO 24003KT 10SM CLR 11/11 A3001 RMK AO2 SLP159 T01110111
KASL 
35nm S 
241015Z AUTO 00000KT 7SM CLR 10/09 A3003 RMK AO1 T01000090
KOSA 
39nm W 
241015Z AUTO 00000KT 10SM CLR 11/10 A3005 RMK AO1 T01110104
KDTN 
40nm SE 
240953Z AUTO 28003KT 10SM CLR 13/12 A3000 RMK AO2 SLP156 T01330117
KSHV 
43nm SE 
240956Z 00000KT 10SM CLR 12/12 A2999 RMK AO2 SLP153 T01220117
KBAD 
45nm SE 
240956Z AUTO 34003KT 10SM CLR 12/11 A2999 RMK AO2 SLP158 T01190113
KJXI 
45nm SW 
241015Z AUTO 00000KT 10SM CLR 10/10 A3002 RMK AO2 T01020100
TAF
KTXK 
23nm NE 
240541Z 2406/2506 29003KT P6SM SKC FM241500 33007KT P6SM SKC FM250000 34003KT P6SM SKC
NOTAMs
Click for the latest NOTAMs
NOTAMs are issued by the DoD/FAA and will open in a separate window not controlled by AirNav.

 

 
 

FBO, Fuel Providers, and Aircraft Ground Support

  
 Business Name 
 
 Contact 
 
 Services / Description 
 
Fuel Prices
 
Comments
  
Flyin JN LLC 903-932-1767
[email]
Aviation fuel, Aircraft parking (ramp or tiedown), Hangars, Passenger terminal and lounge, ...

More info about Flyin JN LLC
Avfuel
100LL
SS $3.99 
GUARANTEED
 
   1 read write
SS=Self service
Update Fuel Prices
 

Would you like to see your business listed on this page?

 If your business provides an interesting product or service to pilots, flight crews, aircraft, or users of the Hall-Miller Municipal Airport, you should consider listing it here.  To start the listing process, click on the button below
 
Add a business
 

Other Pages about Hall-Miller Municipal Airport

Update a link
 
Copyright © AirNav, LLC. All rights reserved. Privacy Policy  Contact